»·PEaware :: N805RJ KAJO-F70

N805RJ :: KAJO-F70

FLIGHT INFORMATION

Flight Status: Arrived
Operator: Privately registered:
United States
More flights under this callsign
Pilot: Rickie J. (22768)
Aircraft: CESSNA 172 SKYHAWK
(C172)
More flights by this aircraft type
Origin: KAJO Corona Mun
United States
Destination: F70 French Valley
United States
More flights between these airports :: More routes between these airports
Route: WERLE NIKKL WESIN
File this flight plan on PilotEdge
Remarks:
Altitude:
(Current/Filed)
3,500ft
Speed:
(Current/Filed)
120kts
Departed: 26-Dec-20 08:18 AM
Arrived: 26-Dec-20 08:57 AM
Distance/Time
Traveled:
32nm/0:39
Distance/Time
To Go:
Arrived

Flight Plot

Page will automatically refresh every two minutes.

Flight plan parsing failed; only flown route is shown


Map Options




Map Legend


Flown Route
Filed Route
Departure Airport
Arrival Airport
Navaid (VOR, NDB)
Fix

Horizontal Profiles

Position Reports

Time Latitude Longitude Heading Altitude Ground
Speed
26-Dec-20 06:49 33.896952 -117.600490 182 537ft 0kts
26-Dec-20 06:50 33.896952 -117.600490 182 537ft 0kts
26-Dec-20 06:51 33.896952 -117.600490 182 537ft 0kts
26-Dec-20 06:52 33.896952 -117.600490 182 537ft 0kts
26-Dec-20 06:53 33.896952 -117.600490 182 537ft 0kts
26-Dec-20 06:54 33.896952 -117.600490 182 537ft 0kts
26-Dec-20 06:55 33.896952 -117.600490 182 537ft 0kts
26-Dec-20 06:56 33.896952 -117.600490 182 537ft 0kts
26-Dec-20 06:57 33.896952 -117.600490 182 537ft 0kts
26-Dec-20 06:58 33.896952 -117.600490 182 537ft 0kts
26-Dec-20 06:59 33.896952 -117.600490 182 537ft 0kts
26-Dec-20 07:00 33.896952 -117.600490 182 537ft 0kts
26-Dec-20 07:01 33.896952 -117.600490 182 537ft 0kts
26-Dec-20 07:02 33.896952 -117.600490 182 537ft 0kts
26-Dec-20 07:03 33.896952 -117.600490 182 537ft 0kts
26-Dec-20 07:04 33.896952 -117.600490 182 537ft 0kts
26-Dec-20 07:05 33.896952 -117.600490 182 537ft 0kts
26-Dec-20 07:06 33.896952 -117.600490 182 537ft 0kts
26-Dec-20 07:07 33.896952 -117.600490 182 537ft 0kts
26-Dec-20 07:08 33.896952 -117.600490 182 537ft 0kts
26-Dec-20 07:09 33.896952 -117.600490 182 537ft 0kts
26-Dec-20 07:10 33.896952 -117.600490 182 537ft 0kts
26-Dec-20 07:11 33.896952 -117.600490 182 537ft 0kts
26-Dec-20 07:12 33.896952 -117.600490 182 537ft 0kts
26-Dec-20 07:13 33.896952 -117.600490 182 537ft 0kts
26-Dec-20 07:14 33.896952 -117.600490 182 537ft 0kts
26-Dec-20 07:15 33.896952 -117.600490 182 537ft 0kts
26-Dec-20 07:16 33.896952 -117.600490 182 537ft 0kts
26-Dec-20 07:21 33.896952 -117.600490 182 537ft 0kts
26-Dec-20 07:22 33.896952 -117.600490 182 537ft 0kts
26-Dec-20 07:23 33.896952 -117.600490 182 537ft 0kts
26-Dec-20 07:24 33.896952 -117.600490 182 537ft 0kts
26-Dec-20 07:26 33.896952 -117.600490 182 537ft 0kts
26-Dec-20 07:27 33.896952 -117.600490 182 537ft 0kts
26-Dec-20 07:28 33.896952 -117.600490 182 537ft 0kts
26-Dec-20 07:29 33.896952 -117.600490 182 537ft 0kts
26-Dec-20 07:30 33.896952 -117.600490 182 537ft 0kts
26-Dec-20 07:31 33.896952 -117.600490 182 537ft 0kts
26-Dec-20 07:32 33.896952 -117.600490 182 537ft 0kts
26-Dec-20 07:33 33.896952 -117.600490 182 537ft 0kts
26-Dec-20 07:34 33.896952 -117.600490 182 537ft 0kts
26-Dec-20 07:36 33.896952 -117.600490 182 537ft 0kts
26-Dec-20 07:37 33.896952 -117.600490 182 537ft 0kts
26-Dec-20 07:38 33.896952 -117.600490 182 537ft 0kts
26-Dec-20 07:39 33.896952 -117.600490 182 537ft 0kts
26-Dec-20 07:40 33.896952 -117.600490 182 537ft 0kts
26-Dec-20 07:41 33.896952 -117.600490 182 537ft 0kts
26-Dec-20 07:42 33.896952 -117.600490 182 537ft 0kts
26-Dec-20 07:43 33.896952 -117.600490 182 537ft 0kts
26-Dec-20 07:44 33.896952 -117.600490 182 537ft 0kts
26-Dec-20 07:45 33.896952 -117.600490 182 537ft 0kts
26-Dec-20 07:46 33.896952 -117.600490 182 537ft 0kts
26-Dec-20 07:47 33.896952 -117.600490 182 537ft 0kts
26-Dec-20 07:48 33.896952 -117.600490 182 537ft 0kts
26-Dec-20 07:49 33.896952 -117.600490 183 537ft 0kts
26-Dec-20 07:50 33.896952 -117.600490 182 537ft 0kts
26-Dec-20 07:51 33.896952 -117.600490 182 537ft 0kts
26-Dec-20 07:52 33.896952 -117.600490 182 537ft 0kts
26-Dec-20 07:52 33.896952 -117.600490 182 537ft 0kts
26-Dec-20 07:54 33.896952 -117.600490 182 537ft 0kts
26-Dec-20 07:54 33.896952 -117.600490 182 537ft 0kts
26-Dec-20 07:56 33.896952 -117.600490 182 537ft 0kts
26-Dec-20 07:56 33.896952 -117.600490 182 537ft 0kts
26-Dec-20 07:57 33.896952 -117.600490 182 537ft 0kts
26-Dec-20 07:58 33.896952 -117.600490 182 537ft 0kts
26-Dec-20 07:59 33.896952 -117.600490 182 537ft 0kts
26-Dec-20 08:00 33.896952 -117.600490 182 537ft 0kts
26-Dec-20 08:01 33.896952 -117.600490 182 537ft 0kts
26-Dec-20 08:02 33.896952 -117.600490 182 537ft 0kts
26-Dec-20 08:03 33.896952 -117.600490 182 537ft 0kts
26-Dec-20 08:04 33.896952 -117.600490 182 537ft 0kts
26-Dec-20 08:05 33.896952 -117.600490 182 537ft 0kts
26-Dec-20 08:06 33.896952 -117.600490 182 537ft 0kts
26-Dec-20 08:07 33.896952 -117.600490 182 537ft 0kts
26-Dec-20 08:08 33.896937 -117.600492 187 537ft 0kts
26-Dec-20 08:09 33.896889 -117.600653 315 537ft 1kts
26-Dec-20 08:10 33.897297 -117.599701 89 537ft 7kts
26-Dec-20 08:11 33.897241 -117.597155 350 537ft 3kts
26-Dec-20 08:12 33.897272 -117.597165 345 537ft 0kts
26-Dec-20 08:13 33.897271 -117.597164 345 537ft 0kts
26-Dec-20 08:14 33.897340 -117.597225 315 537ft 0kts
26-Dec-20 08:15 33.897340 -117.597225 315 537ft 0kts
26-Dec-20 08:16 33.897735 -117.597670 273 537ft 3kts
26-Dec-20 08:17 33.899103 -117.620856 279 921ft 90kts
26-Dec-20 08:18 33.899204 -117.649324 261 1673ft 88kts
26-Dec-20 08:19 33.882964 -117.661999 138 2022ft 124kts
26-Dec-20 08:20 33.887337 -117.617497 73 2016ft 144kts
26-Dec-20 08:21 33.891293 -117.571421 99 2300ft 126kts
26-Dec-20 08:22 33.884746 -117.534100 104 3052ft 108kts
26-Dec-20 08:23 33.875958 -117.498118 131 3416ft 124kts
26-Dec-20 08:24 33.848195 -117.471116 148 3511ft 131kts
26-Dec-20 08:25 33.820446 -117.447772 149 3505ft 116kts
26-Dec-20 08:26 33.794232 -117.425872 149 3510ft 111kts
26-Dec-20 08:27 33.769297 -117.405002 148 3507ft 107kts
26-Dec-20 08:28 33.744230 -117.384058 147 3537ft 116kts
26-Dec-20 08:29 33.716542 -117.360907 148 3535ft 123kts
26-Dec-20 08:30 33.687926 -117.337066 147 3498ft 124kts
26-Dec-20 08:31 33.659654 -117.313522 148 3506ft 123kts
26-Dec-20 08:32 33.631432 -117.289963 148 3507ft 122kts
26-Dec-20 08:33 33.603811 -117.266930 148 3511ft 118kts
26-Dec-20 08:34 33.578318 -117.244268 125 3532ft 112kts
26-Dec-20 08:35 33.573883 -117.208872 95 3470ft 99kts
26-Dec-20 08:36 33.573885 -117.175695 93 3218ft 104kts
26-Dec-20 08:37 33.574128 -117.140226 93 2823ft 106kts
26-Dec-20 08:38 33.593711 -117.119068 11 2416ft 113kts
26-Dec-20 08:39 33.615747 -117.121170 261 2303ft 83kts
26-Dec-20 08:41 33.588894 -117.124753 190 1742ft 79kts
26-Dec-20 08:41 33.572834 -117.129286 194 1712ft 66kts
26-Dec-20 08:42 33.550395 -117.136873 194 2136ft 99kts
26-Dec-20 08:43 33.527291 -117.131003 94 2305ft 99kts
26-Dec-20 08:44 33.549124 -117.117255 11 2302ft 94kts
26-Dec-20 08:45 33.575132 -117.112059 12 2301ft 94kts
26-Dec-20 08:46 33.601565 -117.110148 320 2165ft 101kts
26-Dec-20 08:47 33.589079 -117.124594 196 1616ft 89kts
26-Dec-20 08:48 33.570021 -117.129550 191 1354ft 82kts
26-Dec-20 08:49 33.544725 -117.136516 191 1900ft 82kts
26-Dec-20 08:50 33.527751 -117.129643 89 2318ft 93kts
26-Dec-20 08:51 33.552278 -117.116450 9 2304ft 100kts
26-Dec-20 08:52 33.579203 -117.111172 10 2304ft 96kts
26-Dec-20 08:53 33.602660 -117.109778 314 2098ft 78kts
26-Dec-20 08:54 33.593651 -117.123279 192 1768ft 65kts
26-Dec-20 08:55 33.576948 -117.127753 192 1354ft 42kts
26-Dec-20 08:56 33.574635 -117.128922 238 1354ft 0kts
26-Dec-20 08:57 33.574790 -117.129135 10 1354ft 4kts
26-Dec-20 08:58 33.576985 -117.128559 12 1354ft 10kts
26-Dec-20 08:59 33.580350 -117.127668 13 1354ft 13kts
26-Dec-20 09:00 33.582315 -117.127507 85 1354ft 0kts
26-Dec-20 09:01 33.582315 -117.127506 85 1354ft 0kts
26-Dec-20 09:02 33.582315 -117.127506 85 1354ft 0kts
26-Dec-20 09:03 33.582315 -117.127507 84 1354ft 0kts
26-Dec-20 09:04 33.582315 -117.127506 85 1354ft 0kts
26-Dec-20 09:05 33.582315 -117.127506 85 1354ft 0kts
26-Dec-20 09:06 33.582318 -117.127468 84 1354ft 1kts
26-Dec-20 09:07 33.580737 -117.126732 193 1354ft 44kts
26-Dec-20 09:08 33.557010 -117.133310 190 1827ft 93kts
26-Dec-20 09:09 33.533292 -117.134702 131 2596ft 90kts
26-Dec-20 09:10 33.552376 -117.114138 10 2801ft 128kts

Navigation Log

Ident Type
Flight plan parsing failed, navigation log unavailable